createdAt,value
2017-07-29T00:01:47.942Z,98226.70
2017-07-29T00:04:16.678Z,98227.55
2017-07-29T00:06:45.009Z,98221.15
2017-07-29T00:09:13.323Z,98224.43
2017-07-29T00:11:41.662Z,98224.80
2017-07-29T00:14:09.980Z,98224.60
2017-07-29T00:16:38.349Z,98227.45
2017-07-29T00:19:07.146Z,98230.38
2017-07-29T00:21:35.479Z,98230.91
2017-07-29T00:24:03.859Z,98232.81
2017-07-29T00:26:32.848Z,98239.83
2017-07-29T00:29:01.199Z,98241.95
2017-07-29T00:31:29.541Z,98238.34
2017-07-29T00:33:57.873Z,98236.77
2017-07-29T00:36:26.211Z,98235.60
2017-07-29T00:38:54.532Z,98232.30
2017-07-29T00:41:22.909Z,98229.91
2017-07-29T00:43:51.244Z,98236.32
2017-07-29T00:46:19.592Z,98239.05
2017-07-29T00:48:47.927Z,98236.62
2017-07-29T00:51:16.270Z,98227.52
2017-07-29T00:53:44.627Z,98231.05
2017-07-29T00:56:12.973Z,98231.45
2017-07-29T00:58:41.323Z,98232.39
2017-07-29T01:01:09.663Z,98223.45
2017-07-29T01:03:38.022Z,98219.92
2017-07-29T01:06:06.379Z,98224.80
2017-07-29T01:08:34.716Z,98220.53
2017-07-29T01:11:03.061Z,98222.96
2017-07-29T01:13:31.418Z,98218.22
2017-07-29T01:16:00.213Z,98218.73
2017-07-29T01:18:29.350Z,98208.31
2017-07-29T01:20:57.679Z,98212.81
2017-07-29T01:23:26.007Z,98206.62
2017-07-29T01:25:54.343Z,98204.13
2017-07-29T01:28:23.438Z,98203.78
2017-07-29T01:30:52.148Z,98201.73
2017-07-29T01:33:20.476Z,98205.90
2017-07-29T01:35:48.804Z,98204.08
2017-07-29T01:38:17.209Z,98200.63
2017-07-29T01:40:45.539Z,98200.05
2017-07-29T01:43:14.661Z,98196.88
2017-07-29T01:45:42.971Z,98196.93
2017-07-29T01:48:12.244Z,98201.06
2017-07-29T01:50:40.593Z,98202.45
2017-07-29T01:53:08.925Z,98205.73
2017-07-29T01:55:37.272Z,98212.97
2017-07-29T01:58:06.177Z,98199.64
2017-07-29T02:00:34.516Z,98198.33
2017-07-29T02:03:03.470Z,98198.68
2017-07-29T02:05:31.824Z,98196.15
2017-07-29T02:08:00.432Z,98194.78
2017-07-29T02:10:28.779Z,98178.94
2017-07-29T02:12:57.119Z,98185.52
2017-07-29T02:15:25.460Z,98181.94
2017-07-29T02:17:53.785Z,98179.46
2017-07-29T02:20:22.133Z,98179.90
2017-07-29T02:22:50.485Z,98187.58
2017-07-29T02:25:18.861Z,98186.91
2017-07-29T02:27:48.487Z,98193.91
2017-07-29T02:30:16.836Z,98198.38
2017-07-29T02:32:45.976Z,98189.61
2017-07-29T02:35:14.363Z,98177.53
2017-07-29T02:37:42.725Z,98179.02
2017-07-29T02:40:11.101Z,98173.63
2017-07-29T02:42:39.424Z,98179.80
2017-07-29T02:45:07.768Z,98187.60
2017-07-29T02:47:36.110Z,98201.90
2017-07-29T02:50:05.220Z,98195.34
2017-07-29T02:52:33.579Z,98195.44
2017-07-29T02:55:01.923Z,98200.06
2017-07-29T02:57:30.284Z,98199.70
2017-07-29T02:59:58.624Z,98194.27
2017-07-29T03:02:27.742Z,98194.75
2017-07-29T03:04:56.101Z,98198.95
2017-07-29T03:07:24.441Z,98197.38
2017-07-29T03:09:53.202Z,98191.06
2017-07-29T03:12:21.546Z,98188.94
2017-07-29T03:14:49.899Z,98193.50
2017-07-29T03:17:18.244Z,98190.97
2017-07-29T03:19:46.587Z,98187.76
2017-07-29T03:22:15.707Z,98188.51
2017-07-29T03:24:44.048Z,98190.27
2017-07-29T03:27:12.390Z,98185.36
2017-07-29T03:29:40.732Z,98189.09
2017-07-29T03:32:09.836Z,98184.45
2017-07-29T03:34:38.190Z,98185.97
2017-07-29T03:37:06.532Z,98184.14
2017-07-29T03:39:34.882Z,98188.55
2017-07-29T03:42:03.246Z,98185.77
2017-07-29T03:44:32.323Z,98177.77
2017-07-29T03:47:00.670Z,98175.09
2017-07-29T03:49:29.017Z,98172.11
2017-07-29T03:51:57.352Z,98176.98
2017-07-29T03:54:25.700Z,98165.52
2017-07-29T03:56:54.043Z,98176.27
2017-07-29T03:59:22.638Z,98174.52
2017-07-29T04:01:50.966Z,98170.96
2017-07-29T04:04:19.282Z,98170.59
2017-07-29T04:06:48.387Z,98180.73
2017-07-29T04:09:16.718Z,98184.48
2017-07-29T04:11:45.357Z,98183.98
2017-07-29T04:14:13.686Z,98192.27
2017-07-29T04:16:42.067Z,98178.94
2017-07-29T04:19:10.493Z,98180.38
2017-07-29T04:21:38.824Z,98179.41
2017-07-29T04:24:07.555Z,98175.48
2017-07-29T04:26:37.592Z,98183.53
2017-07-29T04:29:05.925Z,98182.44
2017-07-29T04:31:34.272Z,98179.19
2017-07-29T04:34:02.609Z,98183.33
2017-07-29T04:36:31.972Z,98192.06
2017-07-29T04:39:00.292Z,98192.05
2017-07-29T04:41:29.385Z,98197.80
2017-07-29T04:43:57.728Z,98195.49
2017-07-29T04:46:26.049Z,98195.83
2017-07-29T04:48:55.412Z,98201.81
2017-07-29T04:51:23.757Z,98199.80
2017-07-29T04:53:52.094Z,98202.61
2017-07-29T04:56:21.222Z,98189.45
2017-07-29T04:58:49.546Z,98194.93
2017-07-29T05:01:17.906Z,98196.55
2017-07-29T05:03:46.253Z,98189.89
2017-07-29T05:06:14.614Z,98197.27
2017-07-29T05:08:43.730Z,98186.14
2017-07-29T05:11:12.086Z,98186.31
2017-07-29T05:13:40.428Z,98188.14
2017-07-29T05:16:08.785Z,98193.09
2017-07-29T05:18:37.108Z,98202.92
2017-07-29T05:21:05.445Z,98198.52
2017-07-29T05:23:33.774Z,98202.59
2017-07-29T05:26:02.099Z,98201.02
2017-07-29T05:28:30.442Z,98206.50
2017-07-29T05:30:58.769Z,98205.09
2017-07-29T05:33:27.112Z,98202.38
2017-07-29T05:35:56.225Z,98196.52
2017-07-29T05:38:24.566Z,98194.73
2017-07-29T05:40:52.924Z,98196.41
2017-07-29T05:43:21.285Z,98196.77
2017-07-29T05:45:50.037Z,98196.58
2017-07-29T05:48:18.360Z,98195.73
2017-07-29T05:50:46.684Z,98199.65
2017-07-29T05:53:15.791Z,98193.42
2017-07-29T05:55:44.112Z,98200.73
2017-07-29T05:58:12.479Z,98196.35
2017-07-29T06:00:40.798Z,98199.87
2017-07-29T06:03:09.155Z,98201.18
2017-07-29T06:05:37.510Z,98196.98
2017-07-29T06:08:05.834Z,98190.55
2017-07-29T06:10:34.464Z,98197.44
2017-07-29T06:13:02.791Z,98190.00
2017-07-29T06:15:31.145Z,98189.59
2017-07-29T06:17:59.486Z,98194.48
2017-07-29T06:20:28.585Z,98196.23
2017-07-29T06:22:57.017Z,98199.43
2017-07-29T06:25:25.369Z,98202.02
2017-07-29T06:27:53.714Z,98205.34
2017-07-29T06:30:22.063Z,98203.81
2017-07-29T06:32:50.405Z,98203.78
2017-07-29T06:35:18.762Z,98201.54
2017-07-29T06:37:47.894Z,98204.64
2017-07-29T06:40:16.212Z,98197.98
2017-07-29T06:42:44.583Z,98200.94
2017-07-29T06:45:12.904Z,98201.02
2017-07-29T06:47:41.678Z,98198.11
2017-07-29T06:50:09.995Z,98209.30
2017-07-29T06:52:38.332Z,98207.66
2017-07-29T06:55:07.461Z,98209.64
2017-07-29T06:57:35.797Z,98204.41
2017-07-29T07:00:04.155Z,98204.08
2017-07-29T07:02:32.516Z,98204.67
2017-07-29T07:05:00.846Z,98206.44
2017-07-29T07:07:29.950Z,98208.38
2017-07-29T07:09:58.262Z,98208.89
2017-07-29T07:12:26.604Z,98209.61
2017-07-29T07:14:55.719Z,98214.98
2017-07-29T07:17:24.060Z,98212.06
2017-07-29T07:19:52.408Z,98217.98
2017-07-29T07:22:20.740Z,98216.70
2017-07-29T07:24:49.879Z,98225.63
2017-07-29T07:27:18.199Z,98217.98
2017-07-29T07:29:46.541Z,98230.97
2017-07-29T07:32:14.886Z,98228.59
2017-07-29T07:34:43.228Z,98232.72
2017-07-29T07:37:11.564Z,98228.22
2017-07-29T07:39:39.907Z,98228.97
2017-07-29T07:42:08.235Z,98231.31
2017-07-29T07:44:36.602Z,98229.38
2017-07-29T07:47:04.959Z,98230.33
2017-07-29T07:49:33.294Z,98233.05
2017-07-29T07:52:01.666Z,98229.66
2017-07-29T07:54:29.987Z,98227.26
2017-07-29T07:56:59.399Z,98227.08
2017-07-29T07:59:27.742Z,98231.86
2017-07-29T08:01:56.062Z,98224.36
2017-07-29T08:04:24.410Z,98226.70
2017-07-29T08:06:53.524Z,98221.06
2017-07-29T08:09:21.875Z,98236.02
2017-07-29T08:11:50.541Z,98229.86
2017-07-29T08:14:18.866Z,98232.55
2017-07-29T08:16:47.983Z,98237.41
2017-07-29T08:19:16.325Z,98233.20
2017-07-29T08:21:44.679Z,98236.05
2017-07-29T08:24:13.023Z,98238.59
2017-07-29T08:26:41.370Z,98232.80
2017-07-29T08:29:09.729Z,98233.06
2017-07-29T08:31:38.056Z,98239.33
2017-07-29T08:34:06.420Z,98233.75
2017-07-29T08:36:34.752Z,98238.18
2017-07-29T08:39:03.093Z,98243.22
2017-07-29T08:41:31.441Z,98243.91
2017-07-29T08:43:59.785Z,98229.47
2017-07-29T08:46:28.543Z,98232.99
2017-07-29T08:48:56.875Z,98232.05
2017-07-29T08:51:25.204Z,98233.84
2017-07-29T08:53:53.564Z,98235.86
2017-07-29T08:56:22.682Z,98236.56
2017-07-29T08:58:51.021Z,98243.45
2017-07-29T09:01:19.364Z,98248.70
2017-07-29T09:03:47.684Z,98241.66
2017-07-29T09:06:16.040Z,98239.06
2017-07-29T09:08:44.371Z,98245.48
2017-07-29T09:11:12.739Z,98247.87
2017-07-29T09:13:41.091Z,98238.39
2017-07-29T09:16:09.414Z,98250.03
2017-07-29T09:18:37.747Z,98238.77
2017-07-29T09:21:06.096Z,98238.00
2017-07-29T09:23:34.450Z,98239.94
2017-07-29T09:26:02.805Z,98240.80
2017-07-29T09:28:31.132Z,98251.47
2017-07-29T09:30:59.479Z,98245.14
2017-07-29T09:33:27.824Z,98248.55
2017-07-29T09:35:56.171Z,98252.03
2017-07-29T09:38:24.535Z,98248.32
2017-07-29T09:40:52.864Z,98241.81
2017-07-29T09:43:21.215Z,98240.03
2017-07-29T09:45:49.554Z,98233.48
2017-07-29T09:48:18.668Z,98229.96
2017-07-29T09:50:47.023Z,98230.20
2017-07-29T09:53:15.357Z,98224.78
2017-07-29T09:55:43.714Z,98223.47
2017-07-29T09:58:12.051Z,98225.20
2017-07-29T10:00:40.483Z,98228.31
2017-07-29T10:03:08.838Z,98220.52
2017-07-29T10:05:37.180Z,98214.13
2017-07-29T10:08:05.537Z,98218.53
2017-07-29T10:10:33.902Z,98216.42
2017-07-29T10:13:02.233Z,98220.17
2017-07-29T10:15:30.578Z,98218.85
2017-07-29T10:17:58.905Z,98221.66
2017-07-29T10:20:27.577Z,98217.84
2017-07-29T10:22:55.914Z,98216.63
2017-07-29T10:25:24.268Z,98213.19
2017-07-29T10:27:52.636Z,98211.44
2017-07-29T10:30:20.958Z,98206.35
2017-07-29T10:32:49.574Z,98208.23
2017-07-29T10:35:17.909Z,98196.08
2017-07-29T10:37:46.252Z,98203.56
2017-07-29T10:40:14.608Z,98197.95
2017-07-29T10:42:42.942Z,98204.88
2017-07-29T10:45:11.307Z,98197.28
2017-07-29T10:47:39.618Z,98197.53
2017-07-29T10:50:07.950Z,98207.58
2017-07-29T10:52:36.583Z,98196.48
2017-07-29T10:55:04.915Z,98196.60
2017-07-29T10:57:33.253Z,98200.22
2017-07-29T11:00:01.608Z,98190.73
2017-07-29T11:02:29.932Z,98192.73
2017-07-29T11:04:58.294Z,98198.45
2017-07-29T11:07:26.644Z,98196.20
2017-07-29T11:09:54.970Z,98194.47
2017-07-29T11:12:23.321Z,98196.30
2017-07-29T11:14:51.660Z,98187.89
2017-07-29T11:17:20.271Z,98188.29
2017-07-29T11:19:48.583Z,98191.65
2017-07-29T11:22:16.891Z,98184.70
2017-07-29T11:24:45.783Z,98191.52
2017-07-29T11:27:14.111Z,98175.88
2017-07-29T11:29:42.465Z,98181.20
2017-07-29T11:32:10.813Z,98184.16
2017-07-29T11:34:39.914Z,98178.39
2017-07-29T11:37:08.277Z,98178.23
2017-07-29T11:39:36.601Z,98179.98
2017-07-29T11:42:04.944Z,98182.52
2017-07-29T11:44:34.055Z,98177.05
2017-07-29T11:47:02.385Z,98173.14
2017-07-29T11:49:30.732Z,98169.91
2017-07-29T11:51:59.083Z,98171.25
2017-07-29T11:54:28.198Z,98178.30
2017-07-29T11:56:57.480Z,98176.67
2017-07-29T11:59:25.804Z,98165.56
2017-07-29T12:01:54.143Z,98170.62
2017-07-29T12:04:23.253Z,98176.36
2017-07-29T12:06:51.619Z,98167.80
2017-07-29T12:09:19.963Z,98182.08
2017-07-29T12:11:48.315Z,98174.74
2017-07-29T12:14:17.450Z,98159.89
2017-07-29T12:16:45.768Z,98166.16
2017-07-29T12:19:14.123Z,98160.70
2017-07-29T12:21:42.468Z,98167.71
2017-07-29T12:24:10.806Z,98161.37
2017-07-29T12:26:39.173Z,98154.01
2017-07-29T12:29:08.297Z,98144.13
2017-07-29T12:31:36.661Z,98147.37
2017-07-29T12:34:05.029Z,98139.84
2017-07-29T12:36:33.355Z,98144.33
2017-07-29T12:39:01.726Z,98146.38
2017-07-29T12:41:30.043Z,98145.12
2017-07-29T12:43:58.398Z,98152.30
2017-07-29T12:46:27.250Z,98144.62
2017-07-29T12:48:55.670Z,98141.48
2017-07-29T12:51:24.007Z,98135.19
2017-07-29T12:53:52.356Z,98133.02
2017-07-29T12:56:20.743Z,98130.77
2017-07-29T12:58:49.056Z,98139.61
2017-07-29T13:01:18.047Z,98129.03
2017-07-29T13:03:46.392Z,98119.02
2017-07-29T13:06:15.197Z,98126.41
2017-07-29T13:08:43.537Z,98124.37
2017-07-29T13:11:11.860Z,98125.53
2017-07-29T13:13:40.997Z,98119.88
2017-07-29T13:16:09.840Z,98122.48
2017-07-29T13:18:38.942Z,98122.70
2017-07-29T13:21:07.288Z,98124.95
2017-07-29T13:23:35.622Z,98123.95
2017-07-29T13:26:04.241Z,98121.92
2017-07-29T13:28:32.598Z,98117.18
2017-07-29T13:31:01.028Z,98119.06
2017-07-29T13:33:30.148Z,98122.11
2017-07-29T13:35:58.567Z,98122.13
2017-07-29T13:38:26.922Z,98119.20
2017-07-29T13:40:55.294Z,98106.50
2017-07-29T13:43:23.652Z,98107.09
2017-07-29T13:45:52.001Z,98100.35
2017-07-29T13:48:20.341Z,98108.13
2017-07-29T13:50:48.954Z,98104.55
2017-07-29T13:53:17.272Z,98089.02
2017-07-29T13:55:45.598Z,98097.05
2017-07-29T13:58:13.943Z,98090.34
2017-07-29T14:00:42.269Z,98094.52
2017-07-29T14:03:11.022Z,98100.16
2017-07-29T14:05:39.342Z,98101.41
2017-07-29T14:08:09.603Z,98099.40
2017-07-29T14:10:37.950Z,98093.58
2017-07-29T14:13:06.271Z,98089.25
2017-07-29T14:15:35.678Z,98084.61
2017-07-29T14:18:04.805Z,98095.59
2017-07-29T14:20:33.248Z,98082.33
2017-07-29T14:23:02.352Z,98080.66
2017-07-29T14:25:30.736Z,98081.95
2017-07-29T14:27:59.101Z,98087.03
2017-07-29T14:30:27.446Z,98086.12
2017-07-29T14:32:55.790Z,98075.27
2017-07-29T14:35:24.164Z,98069.44
2017-07-29T14:37:52.492Z,98070.96
2017-07-29T14:40:21.546Z,98071.86
2017-07-29T14:42:49.870Z,98068.86
2017-07-29T14:45:18.219Z,98063.97
2017-07-29T14:47:47.019Z,98068.20
2017-07-29T14:50:15.368Z,98063.33
2017-07-29T14:52:43.707Z,98063.08
2017-07-29T14:55:12.133Z,98059.45
2017-07-29T14:57:40.474Z,98061.91
2017-07-29T15:00:08.804Z,98053.81
2017-07-29T15:02:37.116Z,98057.76
2017-07-29T15:05:05.474Z,98049.67
2017-07-29T15:07:33.820Z,98056.59
2017-07-29T15:10:02.190Z,98055.86
2017-07-29T15:12:30.585Z,98048.64
2017-07-29T15:14:58.946Z,98043.02
2017-07-29T15:17:27.367Z,98045.67
2017-07-29T15:19:56.631Z,98044.75
2017-07-29T15:22:24.977Z,98046.07
2017-07-29T15:24:53.324Z,98042.91
2017-07-29T15:27:21.654Z,98039.48
2017-07-29T15:29:50.004Z,98032.29
2017-07-29T15:32:18.347Z,98031.64
2017-07-29T15:34:46.681Z,98031.17
2017-07-29T15:37:15.051Z,98024.64
2017-07-29T15:39:43.366Z,98025.33
2017-07-29T15:42:11.722Z,98024.28
2017-07-29T15:44:40.091Z,98018.34
2017-07-29T15:47:08.490Z,98015.02
2017-07-29T15:49:37.111Z,98010.72
2017-07-29T15:52:05.430Z,98005.02
2017-07-29T15:54:33.747Z,98004.56
2017-07-29T15:57:02.095Z,98001.88
2017-07-29T15:59:30.474Z,98006.67
2017-07-29T16:01:58.821Z,98000.53
2017-07-29T16:04:27.162Z,97996.41
2017-07-29T16:06:55.499Z,97997.59
2017-07-29T16:09:23.827Z,97994.25
2017-07-29T16:11:52.927Z,97995.02
2017-07-29T16:14:21.275Z,97998.24
2017-07-29T16:16:49.610Z,97993.67
2017-07-29T16:19:17.972Z,97988.87
2017-07-29T16:21:46.324Z,97977.67
2017-07-29T16:24:15.454Z,97981.15
2017-07-29T16:26:43.778Z,97979.84
2017-07-29T16:29:12.500Z,97985.89
2017-07-29T16:31:40.844Z,97974.23
2017-07-29T16:34:09.192Z,97976.88
2017-07-29T16:36:37.641Z,97971.26
2017-07-29T16:39:06.052Z,97964.98
2017-07-29T16:41:34.411Z,97964.64
2017-07-29T16:44:02.736Z,97975.52
2017-07-29T16:46:31.138Z,97964.50
2017-07-29T16:48:59.559Z,97964.66
2017-07-29T16:51:28.166Z,97964.30
2017-07-29T16:53:56.575Z,97960.49
2017-07-29T16:56:24.973Z,97962.20
2017-07-29T16:58:53.340Z,97959.98
2017-07-29T17:01:21.681Z,97957.04
2017-07-29T17:03:50.018Z,97956.69
2017-07-29T17:06:19.107Z,97953.13
2017-07-29T17:08:47.468Z,97949.17
2017-07-29T17:11:15.815Z,97941.88
2017-07-29T17:13:44.587Z,97945.41
2017-07-29T17:16:12.930Z,97943.00
2017-07-29T17:18:41.276Z,97944.61
2017-07-29T17:21:09.615Z,97943.63
2017-07-29T17:23:39.402Z,97938.05
2017-07-29T17:26:08.001Z,97932.66
2017-07-29T17:28:36.396Z,97929.38
2017-07-29T17:31:04.737Z,97924.67
2017-07-29T17:33:33.188Z,97917.19
2017-07-29T17:36:01.520Z,97919.26
2017-07-29T17:38:29.887Z,97917.00
2017-07-29T17:41:01.944Z,97916.32
2017-07-29T17:43:30.535Z,97914.36
2017-07-29T17:45:58.892Z,97909.73
2017-07-29T17:48:27.259Z,97905.16
2017-07-29T17:50:56.437Z,97906.08
2017-07-29T17:53:25.045Z,97902.33
2017-07-29T17:55:53.382Z,97905.67
2017-07-29T17:58:21.713Z,97903.26
2017-07-29T18:00:50.051Z,97901.75
2017-07-29T18:03:18.388Z,97901.11
2017-07-29T18:05:46.831Z,97902.31
2017-07-29T18:08:15.185Z,97899.92
2017-07-29T18:10:43.554Z,97900.96
2017-07-29T18:13:11.925Z,97902.33
2017-07-29T18:15:40.255Z,97900.67
2017-07-29T18:18:08.602Z,97909.14
2017-07-29T18:20:36.943Z,97904.98
2017-07-29T18:23:05.311Z,97899.17
2017-07-29T18:25:33.648Z,97904.19
2017-07-29T18:28:01.988Z,97902.70
2017-07-29T18:30:30.341Z,97895.83
2017-07-29T18:32:58.666Z,97892.16
2017-07-29T18:35:27.030Z,97889.80
2017-07-29T18:37:55.351Z,97891.07
2017-07-29T18:40:24.479Z,97883.35
2017-07-29T18:42:54.441Z,97885.55
2017-07-29T18:45:22.802Z,97882.64
2017-07-29T18:47:51.155Z,97877.33
2017-07-29T18:50:21.000Z,97882.76
2017-07-29T18:52:53.536Z,97881.69
2017-07-29T18:55:22.146Z,97874.56
2017-07-29T18:57:50.479Z,97874.20
2017-07-29T19:00:18.808Z,97884.08
2017-07-29T19:02:47.166Z,97884.55
2017-07-29T19:05:15.504Z,97885.38
2017-07-29T19:07:43.864Z,97886.55
2017-07-29T19:10:13.152Z,97887.05
2017-07-29T19:12:41.521Z,97890.58
2017-07-29T19:15:09.861Z,97888.97
2017-07-29T19:17:38.221Z,97888.73
2017-07-29T19:20:06.560Z,97897.23
2017-07-29T19:22:34.925Z,97897.21
2017-07-29T19:25:03.269Z,97899.33
2017-07-29T19:27:31.896Z,97900.27
2017-07-29T19:30:00.241Z,97895.91
2017-07-29T19:32:28.585Z,97896.60
2017-07-29T19:34:56.941Z,97903.11
2017-07-29T19:37:25.411Z,97906.14
2017-07-29T19:39:53.843Z,97914.34
2017-07-29T19:42:22.229Z,97916.07
2017-07-29T19:44:51.117Z,97918.91
2017-07-29T19:47:19.460Z,97920.37
2017-07-29T19:49:47.814Z,97929.89
2017-07-29T19:52:16.186Z,97924.17
2017-07-29T19:54:44.535Z,97928.97
2017-07-29T19:57:13.675Z,97920.84
2017-07-29T19:59:42.022Z,97923.91
2017-07-29T20:02:10.395Z,97927.09
2017-07-29T20:04:38.799Z,97920.70
2017-07-29T20:07:07.145Z,97927.25
2017-07-29T20:09:35.496Z,97927.27
2017-07-29T20:12:03.815Z,97931.42
2017-07-29T20:14:33.150Z,97924.62
2017-07-29T20:17:01.476Z,97930.12
2017-07-29T20:19:29.803Z,97927.31
2017-07-29T20:21:58.139Z,97927.43
2017-07-29T20:24:26.494Z,97936.93
2017-07-29T20:26:54.870Z,97926.02
2017-07-29T20:29:23.209Z,97927.19
2017-07-29T20:31:51.569Z,97929.62
2017-07-29T20:34:19.907Z,97925.07
2017-07-29T20:36:48.543Z,97928.25
2017-07-29T20:39:16.869Z,97925.73
2017-07-29T20:41:45.233Z,97927.73
2017-07-29T20:44:13.606Z,97928.13
2017-07-29T20:46:41.923Z,97918.66
2017-07-29T20:49:10.270Z,97913.48
2017-07-29T20:51:38.624Z,97918.00
2017-07-29T20:54:06.974Z,97915.48
2017-07-29T20:56:35.297Z,97910.68
2017-07-29T20:59:04.067Z,97907.31
2017-07-29T21:01:32.393Z,97910.52
2017-07-29T21:04:00.730Z,97907.98
2017-07-29T21:06:29.093Z,97907.03
2017-07-29T21:08:58.175Z,97900.11
2017-07-29T21:11:26.528Z,97899.45
2017-07-29T21:13:56.079Z,97903.03
2017-07-29T21:16:24.492Z,97895.53
2017-07-29T21:18:52.849Z,97897.56
2017-07-29T21:21:21.201Z,97890.05
2017-07-29T21:23:49.529Z,97895.10
2017-07-29T21:26:18.197Z,97889.78
2017-07-29T21:28:46.530Z,97890.73
2017-07-29T21:31:16.670Z,97893.50
2017-07-29T21:33:45.587Z,97887.36
2017-07-29T21:36:14.463Z,97878.02
2017-07-29T21:38:43.472Z,97877.87
2017-07-29T21:41:12.355Z,97878.36
2017-07-29T21:43:41.534Z,97877.00
2017-07-29T21:46:10.347Z,97878.86
2017-07-29T21:48:39.033Z,97883.09
2017-07-29T21:51:07.352Z,97888.77
2017-07-29T21:53:35.689Z,97881.30
2017-07-29T21:56:04.813Z,97880.14
2017-07-29T21:58:33.151Z,97876.11
2017-07-29T22:01:01.510Z,97879.22
2017-07-29T22:03:29.842Z,97877.97
2017-07-29T22:05:58.200Z,97879.02
2017-07-29T22:08:26.562Z,97876.39
2017-07-29T22:10:54.910Z,97877.95
2017-07-29T22:13:23.537Z,97881.31
2017-07-29T22:15:51.864Z,97879.70
2017-07-29T22:18:20.175Z,97882.86
2017-07-29T22:20:48.528Z,97885.89
2017-07-29T22:23:16.850Z,97889.13
2017-07-29T22:25:45.197Z,97880.28
2017-07-29T22:28:13.523Z,97883.67
2017-07-29T22:30:41.871Z,97883.20
2017-07-29T22:33:10.221Z,97878.25
2017-07-29T22:35:38.566Z,97878.53
2017-07-29T22:38:06.911Z,97875.29
2017-07-29T22:40:35.224Z,97879.16
2017-07-29T22:43:03.582Z,97880.51
2017-07-29T22:45:31.920Z,97882.05
2017-07-29T22:48:00.288Z,97879.86
2017-07-29T22:50:28.668Z,97876.80
2017-07-29T22:52:56.997Z,97874.37
2017-07-29T22:55:25.364Z,97871.95
2017-07-29T22:57:53.714Z,97875.13
2017-07-29T23:00:22.074Z,97866.56
2017-07-29T23:02:50.436Z,97865.52
2017-07-29T23:05:18.762Z,97857.34
2017-07-29T23:07:47.131Z,97859.82
2017-07-29T23:10:15.470Z,97857.20
2017-07-29T23:12:43.840Z,97847.34
2017-07-29T23:15:12.173Z,97846.58
2017-07-29T23:17:40.809Z,97842.93
2017-07-29T23:20:09.150Z,97841.27
2017-07-29T23:22:37.515Z,97838.13
2017-07-29T23:25:05.861Z,97843.34
2017-07-29T23:27:34.181Z,97843.52
2017-07-29T23:30:02.572Z,97840.33
2017-07-29T23:32:30.905Z,97835.77
2017-07-29T23:34:59.527Z,97837.38
2017-07-29T23:37:27.855Z,97832.70
2017-07-29T23:39:56.197Z,97830.29
2017-07-29T23:42:24.549Z,97822.48
2017-07-29T23:44:53.363Z,97823.45
2017-07-29T23:47:21.709Z,97826.52
2017-07-29T23:49:50.015Z,97824.68
2017-07-29T23:52:18.362Z,97817.73
2017-07-29T23:54:46.686Z,97822.56
2017-07-29T23:57:15.296Z,97816.47
2017-07-29T23:59:43.642Z,97817.88
